createdAt,value
2023-04-25T00:00:15.544Z,12.45
2023-04-25T00:02:42.500Z,10.93
2023-04-25T00:05:09.903Z,11.32
2023-04-25T00:07:36.656Z,10.35
2023-04-25T00:10:04.016Z,12.88
2023-04-25T00:12:30.593Z,14.43
2023-04-25T00:15:00.935Z,12.02
2023-04-25T00:17:27.793Z,10.70
2023-04-25T00:19:54.356Z,12.73
2023-04-25T00:22:21.824Z,11.07
2023-04-25T00:24:48.541Z,12.27
2023-04-25T00:27:15.330Z,10.90
2023-04-25T00:29:41.865Z,10.10
2023-04-25T00:32:08.518Z,10.70
2023-04-25T00:34:35.234Z,9.27
2023-04-25T00:37:03.028Z,10.35
2023-04-25T00:39:29.602Z,10.88
2023-04-25T00:41:56.511Z,11.10
2023-04-25T00:44:23.715Z,10.77
2023-04-25T00:46:51.248Z,10.20
2023-04-25T00:49:17.885Z,11.93
2023-04-25T00:51:47.802Z,11.80
2023-04-25T00:54:14.993Z,9.63
2023-04-25T00:56:42.184Z,10.02
2023-04-25T00:59:10.557Z,10.43
2023-04-25T01:01:37.245Z,12.18
2023-04-25T01:04:03.968Z,12.32
2023-04-25T01:06:31.808Z,9.75
2023-04-25T01:08:59.729Z,10.65
2023-04-25T01:11:26.279Z,10.32
2023-04-25T01:13:53.180Z,8.70
2023-04-25T01:16:20.128Z,9.57
2023-04-25T01:18:47.625Z,12.60
2023-04-25T01:21:14.411Z,9.07
2023-04-25T01:23:42.300Z,9.05
2023-04-25T01:26:11.149Z,11.77
2023-04-25T01:28:38.787Z,13.02
2023-04-25T01:31:06.732Z,12.48
2023-04-25T01:33:33.651Z,10.55
2023-04-25T01:36:00.931Z,9.77
2023-04-25T01:38:27.671Z,13.25
2023-04-25T01:40:55.724Z,11.13
2023-04-25T01:43:22.434Z,10.93
2023-04-25T01:45:50.234Z,10.50
2023-04-25T01:48:17.131Z,12.70
2023-04-25T01:50:44.808Z,20.23
2023-04-25T01:53:13.361Z,12.52
2023-04-25T01:55:40.229Z,12.80
2023-04-25T01:58:10.607Z,14.48
2023-04-25T02:00:39.753Z,14.90
2023-04-25T02:03:06.801Z,12.65
2023-04-25T02:05:37.709Z,12.93
2023-04-25T02:08:06.567Z,10.82
2023-04-25T02:10:34.072Z,9.63
2023-04-25T02:13:00.684Z,10.73
2023-04-25T02:15:29.112Z,14.32
2023-04-25T02:17:56.172Z,12.85
2023-04-25T02:20:24.013Z,11.77
2023-04-25T02:22:50.890Z,11.23
2023-04-25T02:25:19.015Z,10.10
2023-04-25T02:27:45.539Z,12.48
2023-04-25T02:30:12.588Z,14.02
2023-04-25T02:32:40.167Z,11.85
2023-04-25T02:35:07.659Z,10.35
2023-04-25T02:37:35.683Z,12.20
2023-04-25T02:40:02.392Z,12.65
2023-04-25T02:42:28.918Z,14.75
2023-04-25T02:44:55.483Z,12.35
2023-04-25T02:47:22.483Z,11.18
2023-04-25T02:49:49.324Z,13.23
2023-04-25T02:52:15.933Z,10.70
2023-04-25T02:54:42.512Z,12.77
2023-04-25T02:57:09.155Z,11.02
2023-04-25T02:59:36.102Z,12.05
2023-04-25T03:02:02.713Z,11.70
2023-04-25T03:04:29.304Z,10.25
2023-04-25T03:06:56.015Z,12.55
2023-04-25T03:09:22.678Z,11.05
2023-04-25T03:11:49.212Z,12.93
2023-04-25T03:14:16.083Z,14.75
2023-04-25T03:16:42.667Z,14.05
2023-04-25T03:19:09.324Z,14.50
2023-04-25T03:21:36.753Z,12.90
2023-04-25T03:24:05.327Z,12.68
2023-04-25T03:26:32.053Z,12.45
2023-04-25T03:28:58.676Z,14.27
2023-04-25T03:31:25.861Z,12.55
2023-04-25T03:33:52.716Z,11.07
2023-04-25T03:36:19.401Z,13.20
2023-04-25T03:38:45.905Z,12.52
2023-04-25T03:41:12.494Z,12.25
2023-04-25T03:43:39.043Z,12.35
2023-04-25T03:46:05.725Z,14.52
2023-04-25T03:48:32.377Z,13.80
2023-04-25T03:50:58.905Z,14.15
2023-04-25T03:53:26.047Z,15.23
2023-04-25T03:55:52.947Z,16.83
2023-04-25T03:58:19.508Z,14.60
2023-04-25T04:00:46.169Z,12.88
2023-04-25T04:03:12.881Z,15.93
2023-04-25T04:05:41.442Z,14.30
2023-04-25T04:08:08.223Z,14.18
2023-04-25T04:10:34.749Z,14.30
2023-04-25T04:13:01.286Z,16.45
2023-04-25T04:15:28.074Z,14.85
2023-04-25T04:17:55.677Z,16.10
2023-04-25T04:20:22.411Z,18.67
2023-04-25T04:22:48.963Z,16.00
2023-04-25T04:25:15.581Z,17.13
2023-04-25T04:27:42.223Z,17.17
2023-04-25T04:30:09.328Z,17.08
2023-04-25T04:32:38.683Z,17.58
2023-04-25T04:35:07.408Z,21.13
2023-04-25T04:37:34.426Z,17.98
2023-04-25T04:40:05.914Z,18.50
2023-04-25T04:42:32.501Z,19.33
2023-04-25T04:44:59.528Z,20.27
2023-04-25T04:47:26.823Z,19.65
2023-04-25T04:49:53.426Z,20.02
2023-04-25T04:52:19.983Z,15.93
2023-04-25T04:54:46.584Z,16.73
2023-04-25T04:57:13.146Z,14.68
2023-04-25T04:59:39.685Z,22.27
2023-04-25T05:02:06.273Z,17.55
2023-04-25T05:04:32.884Z,20.27
2023-04-25T05:06:59.632Z,18.08
2023-04-25T05:09:26.724Z,17.08
2023-04-25T05:11:53.314Z,14.75
2023-04-25T05:14:19.845Z,16.27
2023-04-25T05:16:46.466Z,16.45
2023-04-25T05:19:13.071Z,16.75
2023-04-25T05:21:39.666Z,17.55
2023-04-25T05:24:06.472Z,14.60
2023-04-25T05:26:33.032Z,13.98
2023-04-25T05:28:59.629Z,17.08
2023-04-25T05:31:26.574Z,18.90
2023-04-25T05:33:53.350Z,13.93
2023-04-25T05:36:20.661Z,13.90
2023-04-25T05:38:47.229Z,16.05
2023-04-25T05:41:13.779Z,15.98
2023-04-25T05:43:45.875Z,17.45
2023-04-25T05:46:12.583Z,13.60
2023-04-25T05:48:40.738Z,16.52
2023-04-25T05:51:07.336Z,15.75
2023-04-25T05:53:33.931Z,14.40
2023-04-25T05:56:00.678Z,12.60
2023-04-25T05:58:27.253Z,14.13
2023-04-25T06:00:53.871Z,15.40
2023-04-25T06:03:21.432Z,9.70
2023-04-25T06:05:48.286Z,8.73
2023-04-25T06:08:15.026Z,9.80
2023-04-25T06:10:41.642Z,11.23
2023-04-25T06:13:08.212Z,9.57
2023-04-25T06:15:34.868Z,11.38
2023-04-25T06:18:01.793Z,12.85
2023-04-25T06:20:28.523Z,14.95
2023-04-25T06:22:55.094Z,10.07
2023-04-25T06:25:21.923Z,10.23
2023-04-25T06:27:48.609Z,11.57
2023-04-25T06:30:16.084Z,10.90
2023-04-25T06:32:42.640Z,9.05
2023-04-25T06:35:09.655Z,9.30
2023-04-25T06:37:36.153Z,10.52
2023-04-25T06:40:03.368Z,11.10
2023-04-25T06:42:29.959Z,8.65
2023-04-25T06:44:56.772Z,7.80
2023-04-25T06:47:23.609Z,8.50
2023-04-25T06:49:50.759Z,7.55
2023-04-25T06:52:18.883Z,9.23
2023-04-25T06:54:46.110Z,10.90
2023-04-25T06:57:12.811Z,7.85
2023-04-25T06:59:39.434Z,11.30
2023-04-25T07:02:07.010Z,10.65
2023-04-25T07:04:33.869Z,9.50
2023-04-25T07:07:03.459Z,10.63
2023-04-25T07:09:30.809Z,7.97
2023-04-25T07:11:57.628Z,6.78
2023-04-25T07:14:24.282Z,9.88
2023-04-25T07:16:50.988Z,13.35
2023-04-25T07:19:17.720Z,9.80
2023-04-25T07:21:44.289Z,8.60
2023-04-25T07:24:11.128Z,8.27
2023-04-25T07:26:38.283Z,8.75
2023-04-25T07:29:04.897Z,8.10
2023-04-25T07:31:31.491Z,9.40
2023-04-25T07:33:59.859Z,9.18
2023-04-25T07:36:28.091Z,12.80
2023-04-25T07:38:54.650Z,10.63
2023-04-25T07:41:21.196Z,7.72
2023-04-25T07:43:47.767Z,7.93
2023-04-25T07:46:14.323Z,7.40
2023-04-25T07:48:40.899Z,8.82
2023-04-25T07:51:08.277Z,8.13
2023-04-25T07:53:35.730Z,8.30
2023-04-25T07:56:02.318Z,9.45
2023-04-25T07:58:28.888Z,7.07
2023-04-25T08:00:55.656Z,5.88
2023-04-25T08:03:22.472Z,8.43
2023-04-25T08:05:49.492Z,6.32
2023-04-25T08:08:16.172Z,6.80
2023-04-25T08:10:43.129Z,8.07
2023-04-25T08:13:09.675Z,9.52
2023-04-25T08:15:36.361Z,6.65
2023-04-25T08:18:02.989Z,10.55
2023-04-25T08:20:29.611Z,7.65
2023-04-25T08:22:56.499Z,9.57
2023-04-25T08:25:23.111Z,7.47
2023-04-25T08:27:49.754Z,11.57
2023-04-25T08:30:16.355Z,9.13
2023-04-25T08:32:42.898Z,8.02
2023-04-25T08:35:10.398Z,8.45
2023-04-25T08:37:37.365Z,10.52
2023-04-25T08:40:07.918Z,6.93
2023-04-25T08:42:36.062Z,8.32
2023-04-25T08:45:06.600Z,7.15
2023-04-25T08:47:35.848Z,8.25
2023-04-25T08:50:04.958Z,8.55
2023-04-25T08:52:36.755Z,6.95
2023-04-25T08:55:04.507Z,9.93
2023-04-25T08:57:33.255Z,9.13
2023-04-25T09:00:02.123Z,4.93
2023-04-25T09:02:28.890Z,6.82
2023-04-25T09:04:58.206Z,6.07
2023-04-25T09:07:26.579Z,5.72
2023-04-25T09:10:00.642Z,8.68
2023-04-25T09:12:28.971Z,7.40
2023-04-25T09:15:08.935Z,8.05
2023-04-25T09:17:35.892Z,6.57
2023-04-25T09:20:16.080Z,6.15
2023-04-25T09:22:43.824Z,8.57
2023-04-25T09:25:12.194Z,7.43
2023-04-25T09:27:52.021Z,7.65
2023-04-25T09:30:18.818Z,6.18
2023-04-25T09:32:46.523Z,7.45
2023-04-25T09:35:26.202Z,5.60
2023-04-25T09:37:52.908Z,6.10
2023-04-25T09:40:19.707Z,6.82
2023-04-25T09:42:46.330Z,6.75
2023-04-25T09:45:16.648Z,8.18
2023-04-25T09:47:44.952Z,8.05
2023-04-25T09:50:16.972Z,7.55
2023-04-25T09:52:44.232Z,6.88
2023-04-25T09:55:10.874Z,8.23
2023-04-25T09:57:40.826Z,6.50
2023-04-25T10:00:11.941Z,5.22
2023-04-25T10:02:41.031Z,7.75
2023-04-25T10:05:09.262Z,6.18
2023-04-25T10:07:39.020Z,7.18
2023-04-25T10:10:06.887Z,7.22
2023-04-25T10:12:34.167Z,6.20
2023-04-25T10:15:01.646Z,5.78
2023-04-25T10:17:31.457Z,5.60
2023-04-25T10:19:58.784Z,8.60
2023-04-25T10:22:38.974Z,9.35
2023-04-25T10:25:06.912Z,6.75
2023-04-25T10:27:34.654Z,7.85
2023-04-25T10:30:19.701Z,8.77
2023-04-25T10:32:48.168Z,5.90
2023-04-25T10:35:20.380Z,7.13
2023-04-25T10:38:09.856Z,6.22
2023-04-25T10:40:37.159Z,8.32
2023-04-25T10:43:36.402Z,6.50
2023-04-25T10:46:13.259Z,8.18
2023-04-25T10:48:54.754Z,7.18
2023-04-25T10:51:26.323Z,11.13
2023-04-25T10:53:56.802Z,8.07
2023-04-25T10:56:26.498Z,6.95
2023-04-25T10:59:03.485Z,6.78
2023-04-25T11:01:39.080Z,5.05
2023-04-25T11:04:05.956Z,6.90
2023-04-25T11:07:05.559Z,7.90
2023-04-25T11:09:39.680Z,6.20
2023-04-25T11:12:08.294Z,4.65
2023-04-25T11:14:35.337Z,6.45
2023-04-25T11:17:03.380Z,5.55
2023-04-25T11:19:31.081Z,6.75
2023-04-25T11:21:59.013Z,6.90
2023-04-25T11:24:31.878Z,5.68
2023-04-25T11:27:05.253Z,5.25
2023-04-25T11:29:34.065Z,5.60
2023-04-25T11:32:02.118Z,5.45
2023-04-25T11:34:33.592Z,4.22
2023-04-25T11:37:01.509Z,6.38
2023-04-25T11:39:29.419Z,9.32
2023-04-25T11:41:57.352Z,7.43
2023-04-25T11:44:24.272Z,8.10
2023-04-25T11:46:50.929Z,6.13
2023-04-25T11:49:19.011Z,3.85
2023-04-25T11:51:47.990Z,5.38
2023-04-25T11:54:15.756Z,5.07
2023-04-25T11:56:43.556Z,5.20
2023-04-25T11:59:11.970Z,4.70
2023-04-25T12:01:42.098Z,5.47
2023-04-25T12:04:25.758Z,7.88
2023-04-25T12:06:54.951Z,5.25
2023-04-25T12:09:30.238Z,6.85
2023-04-25T12:12:03.771Z,6.45
2023-04-25T12:14:35.910Z,7.97
2023-04-25T12:17:05.007Z,7.03
2023-04-25T12:19:36.363Z,6.78
2023-04-25T12:22:04.428Z,7.40
2023-04-25T12:24:38.348Z,5.57
2023-04-25T12:27:08.955Z,5.93
2023-04-25T12:29:48.822Z,7.93
2023-04-25T12:32:16.888Z,5.78
2023-04-25T12:34:43.534Z,8.48
2023-04-25T12:37:10.368Z,7.30
2023-04-25T12:39:36.988Z,7.05
2023-04-25T12:42:05.097Z,4.80
2023-04-25T12:44:32.863Z,5.60
2023-04-25T12:47:00.841Z,8.18
2023-04-25T12:49:27.490Z,6.70
2023-04-25T12:51:54.097Z,6.50
2023-04-25T12:54:21.053Z,6.10
2023-04-25T12:56:48.206Z,6.30
2023-04-25T12:59:15.070Z,8.20
2023-04-25T13:01:41.825Z,8.00
2023-04-25T13:04:08.665Z,6.38
2023-04-25T13:06:35.367Z,8.65
2023-04-25T13:09:02.420Z,8.23
2023-04-25T13:14:01.398Z,4.28
2023-04-25T13:16:28.216Z,7.28
2023-04-25T13:18:54.915Z,7.75
2023-04-25T13:21:21.427Z,7.50
2023-04-25T13:23:48.131Z,6.40
2023-04-25T13:26:14.844Z,11.02
2023-04-25T13:28:43.646Z,7.40
2023-04-25T13:31:11.750Z,10.00
2023-04-25T13:33:38.445Z,6.63
2023-04-25T13:36:05.268Z,7.30
2023-04-25T13:38:31.945Z,6.07
2023-04-25T13:40:58.681Z,10.68
2023-04-25T13:43:25.371Z,7.38
2023-04-25T13:45:52.498Z,6.85
2023-04-25T13:48:20.818Z,7.45
2023-04-25T13:50:47.560Z,7.18
2023-04-25T13:53:14.207Z,7.18
2023-04-25T13:55:41.126Z,4.88
2023-04-25T13:58:10.892Z,7.53
2023-04-25T14:00:44.077Z,6.10
2023-04-25T14:03:11.066Z,8.55
2023-04-25T14:05:39.104Z,6.05
2023-04-25T14:08:10.297Z,5.82
2023-04-25T14:10:37.145Z,9.07
2023-04-25T14:13:04.554Z,5.97
2023-04-25T14:15:32.855Z,7.45
2023-04-25T14:18:00.205Z,9.05
2023-04-25T14:20:27.320Z,8.05
2023-04-25T14:22:55.491Z,8.65
2023-04-25T14:25:22.358Z,9.93
2023-04-25T14:27:50.812Z,8.80
2023-04-25T14:30:18.996Z,6.95
2023-04-25T14:32:46.385Z,7.15
2023-04-25T14:35:13.812Z,7.28
2023-04-25T14:37:40.842Z,6.97
2023-04-25T14:40:12.965Z,4.15
2023-04-25T14:42:42.560Z,6.97
2023-04-25T14:45:10.271Z,6.03
2023-04-25T14:47:40.347Z,5.55
2023-04-25T14:50:08.103Z,6.00
2023-04-25T14:52:35.164Z,6.30
2023-04-25T14:55:05.696Z,6.90
2023-04-25T14:57:35.890Z,6.57
2023-04-25T15:00:03.239Z,5.65
2023-04-25T15:02:30.539Z,7.65
2023-04-25T15:04:57.470Z,6.35
2023-04-25T15:07:24.688Z,5.75
2023-04-25T15:09:51.391Z,7.03
2023-04-25T15:12:18.348Z,5.90
2023-04-25T15:14:44.958Z,7.32
2023-04-25T15:17:14.373Z,5.30
2023-04-25T15:19:41.180Z,6.95
2023-04-25T15:22:07.766Z,3.92
2023-04-25T15:24:34.405Z,4.82
2023-04-25T15:27:00.993Z,5.22
2023-04-25T15:29:28.088Z,4.88
2023-04-25T15:31:54.776Z,6.78
2023-04-25T15:34:21.363Z,7.32
2023-04-25T15:36:47.928Z,4.93
2023-04-25T15:39:14.626Z,5.55
2023-04-25T15:41:41.795Z,5.18
2023-04-25T15:44:09.428Z,4.18
2023-04-25T15:46:36.132Z,5.15
2023-04-25T15:49:03.130Z,3.45
2023-04-25T15:51:29.965Z,6.75
2023-04-25T15:53:56.851Z,4.93
2023-04-25T15:56:24.108Z,4.88
2023-04-25T15:58:51.574Z,3.85
2023-04-25T16:01:18.313Z,3.83
2023-04-25T16:03:44.978Z,4.13
2023-04-25T16:06:11.959Z,3.30
2023-04-25T16:08:38.583Z,4.07
2023-04-25T16:11:05.492Z,6.20
2023-04-25T16:13:33.537Z,3.60
2023-04-25T16:16:00.250Z,4.78
2023-04-25T16:18:27.085Z,5.18
2023-04-25T16:20:53.769Z,3.22
2023-04-25T16:23:20.494Z,4.22
2023-04-25T16:25:47.613Z,5.95
2023-04-25T16:28:14.192Z,6.00
2023-04-25T16:30:41.376Z,6.78
2023-04-25T16:33:08.508Z,7.30
2023-04-25T16:35:35.185Z,6.32
2023-04-25T16:38:01.914Z,4.43
2023-04-25T16:40:28.585Z,4.45
2023-04-25T16:42:55.222Z,3.88
2023-04-25T16:45:22.209Z,5.03
2023-04-25T16:47:48.863Z,3.95
2023-04-25T16:50:16.519Z,5.07
2023-04-25T16:52:44.454Z,6.72
2023-04-25T16:55:11.428Z,6.45
2023-04-25T16:57:38.271Z,5.80
2023-04-25T17:00:09.547Z,4.57
2023-04-25T17:02:36.307Z,6.82
2023-04-25T17:05:03.103Z,5.97
2023-04-25T17:07:29.825Z,5.90
2023-04-25T17:09:56.666Z,6.93
2023-04-25T17:12:23.320Z,6.00
2023-04-25T17:14:50.332Z,7.65
2023-04-25T17:17:18.619Z,6.13
2023-04-25T17:19:45.852Z,6.90
2023-04-25T17:22:12.817Z,5.25
2023-04-25T17:24:40.546Z,7.75
2023-04-25T17:27:07.298Z,5.32
2023-04-25T17:29:35.149Z,6.50
2023-04-25T17:32:02.026Z,4.85
2023-04-25T17:34:28.948Z,5.05
2023-04-25T17:36:55.519Z,7.07
2023-04-25T17:39:22.213Z,6.35
2023-04-25T17:41:48.887Z,4.07
2023-04-25T17:44:15.558Z,4.32
2023-04-25T17:46:42.263Z,4.78
2023-04-25T17:49:09.158Z,9.05
2023-04-25T17:51:38.870Z,5.65
2023-04-25T17:54:10.897Z,3.70
2023-04-25T17:56:38.315Z,6.85
2023-04-25T17:59:10.919Z,6.40
2023-04-25T18:01:42.304Z,6.65
2023-04-25T18:04:14.207Z,5.22
2023-04-25T18:07:04.012Z,5.60
2023-04-25T18:09:33.909Z,5.22
2023-04-25T18:12:38.894Z,6.57
2023-04-25T18:19:06.824Z,5.88
2023-04-25T18:21:25.846Z,6.28
2023-04-25T18:24:04.091Z,7.13
2023-04-25T18:26:31.641Z,6.43
2023-04-25T18:28:58.496Z,6.45
2023-04-25T18:31:26.394Z,5.57
2023-04-25T18:33:58.248Z,6.60
2023-04-25T18:36:26.351Z,8.98
2023-04-25T18:39:08.289Z,6.10
2023-04-25T18:41:55.251Z,4.43
2023-04-25T18:44:28.440Z,3.75
2023-04-25T18:46:55.092Z,9.45
2023-04-25T18:49:21.770Z,7.13
2023-04-25T18:51:49.009Z,6.60
2023-04-25T18:54:16.978Z,4.30
2023-04-25T18:56:43.562Z,6.75
2023-04-25T18:59:11.144Z,6.32
2023-04-25T19:01:37.908Z,6.72
2023-04-25T19:04:13.276Z,6.40
2023-04-25T19:06:45.249Z,5.47
2023-04-25T19:09:15.354Z,4.85
2023-04-25T19:11:42.094Z,7.32
2023-04-25T19:14:10.823Z,5.65
2023-04-25T19:16:40.403Z,7.00
2023-04-25T19:19:20.997Z,6.72
2023-04-25T19:28:15.269Z,11.23
2023-04-25T19:33:30.716Z,6.25
2023-04-25T19:36:28.260Z,5.57
2023-04-25T19:39:17.093Z,7.00
2023-04-25T19:42:16.643Z,7.45
2023-04-25T19:48:28.358Z,7.78
2023-04-25T19:51:06.674Z,9.77
2023-04-25T19:53:49.751Z,5.57
2023-04-25T19:56:37.345Z,7.70
2023-04-25T19:59:03.897Z,6.93
2023-04-25T20:01:30.793Z,5.10
2023-04-25T20:03:57.518Z,8.43
2023-04-25T20:06:24.310Z,6.65
2023-04-25T20:08:53.577Z,5.03
2023-04-25T20:11:21.345Z,4.13
2023-04-25T20:13:48.052Z,5.03
2023-04-25T20:16:19.670Z,4.93
2023-04-25T20:18:49.944Z,3.50
2023-04-25T20:21:17.030Z,3.53
2023-04-25T20:23:44.034Z,5.00
2023-04-25T20:26:11.729Z,6.82
2023-04-25T20:28:38.989Z,6.30
2023-04-25T20:31:05.627Z,4.22
2023-04-25T20:33:32.220Z,4.43
2023-04-25T20:35:58.877Z,6.97
2023-04-25T20:38:25.810Z,7.75
2023-04-25T20:40:54.007Z,4.63
2023-04-25T20:43:20.561Z,4.93
2023-04-25T20:45:47.172Z,3.42
2023-04-25T20:48:14.044Z,3.00
2023-04-25T20:50:41.010Z,3.53
2023-04-25T20:53:08.289Z,3.88
2023-04-25T20:55:35.155Z,5.53
2023-04-25T20:58:01.835Z,3.55
2023-04-25T21:00:29.187Z,3.95
2023-04-25T21:02:57.311Z,4.70
2023-04-25T21:05:24.533Z,7.05
2023-04-25T21:07:54.715Z,3.42
2023-04-25T21:10:21.256Z,4.47
2023-04-25T21:12:49.361Z,5.75
2023-04-25T21:15:22.799Z,7.18
2023-04-25T21:17:50.508Z,6.45
2023-04-25T21:20:19.362Z,5.80
2023-04-25T21:22:51.965Z,6.60
2023-04-25T21:25:29.854Z,5.25
2023-04-25T21:27:57.651Z,7.05
2023-04-25T21:30:25.824Z,6.80
2023-04-25T21:32:53.522Z,4.95
2023-04-25T21:35:21.840Z,5.70
2023-04-25T21:37:48.613Z,6.18
2023-04-25T21:40:15.616Z,6.75
2023-04-25T21:42:44.369Z,7.00
2023-04-25T21:45:11.341Z,5.03
2023-04-25T21:47:38.922Z,4.63
2023-04-25T21:50:06.001Z,5.47
2023-04-25T21:52:32.758Z,5.72
2023-04-25T21:54:59.302Z,4.38
2023-04-25T21:57:26.323Z,7.47
2023-04-25T21:59:53.389Z,8.38
2023-04-25T22:02:20.176Z,8.10
2023-04-25T22:04:49.928Z,7.88
2023-04-25T22:07:16.549Z,7.82
2023-04-25T22:09:53.876Z,10.68
2023-04-25T22:12:22.561Z,9.73
2023-04-25T22:14:49.396Z,8.13
2023-04-25T22:17:15.998Z,10.00
2023-04-25T22:19:43.120Z,11.88
2023-04-25T22:22:09.764Z,8.55
2023-04-25T22:24:36.338Z,7.95
2023-04-25T22:27:02.973Z,5.28
2023-04-25T22:29:29.490Z,7.05
2023-04-25T22:31:56.702Z,3.97
2023-04-25T22:34:23.330Z,5.43
2023-04-25T22:36:49.843Z,5.97
2023-04-25T22:39:16.920Z,5.13
2023-04-25T22:41:43.505Z,6.22
2023-04-25T22:44:10.986Z,5.68
2023-04-25T22:46:37.605Z,6.53
2023-04-25T22:49:04.748Z,4.00
2023-04-25T22:51:31.661Z,9.88
2023-04-25T22:53:58.220Z,5.78
2023-04-25T22:56:24.974Z,6.13
2023-04-25T22:58:51.783Z,7.13
2023-04-25T23:01:19.407Z,5.35
2023-04-25T23:03:46.394Z,5.35
2023-04-25T23:06:13.500Z,6.43
2023-04-25T23:08:41.658Z,6.22
2023-04-25T23:11:09.108Z,6.20
2023-04-25T23:13:38.863Z,6.28
2023-04-25T23:16:09.385Z,5.75
2023-04-25T23:18:36.653Z,7.13
2023-04-25T23:21:04.337Z,3.65
2023-04-25T23:23:30.902Z,4.65
2023-04-25T23:25:58.120Z,6.32
2023-04-25T23:28:24.770Z,3.63
2023-04-25T23:30:52.435Z,4.07
2023-04-25T23:33:19.059Z,4.15
2023-04-25T23:35:45.977Z,4.57
2023-04-25T23:38:13.571Z,4.80
2023-04-25T23:40:40.328Z,5.80
2023-04-25T23:43:06.868Z,5.72
2023-04-25T23:45:34.448Z,4.78
2023-04-25T23:48:02.656Z,3.60
2023-04-25T23:50:29.250Z,4.80
2023-04-25T23:52:55.897Z,4.43
2023-04-25T23:55:22.451Z,5.80
2023-04-25T23:57:49.042Z,8.38
